createdAt,value
2023-03-06T00:00:33.741Z,9.05
2023-03-06T00:03:01.113Z,8.57
2023-03-06T00:05:28.564Z,9.48
2023-03-06T00:07:55.281Z,10.00
2023-03-06T00:10:28.038Z,9.85
2023-03-06T00:12:57.176Z,9.90
2023-03-06T00:15:26.379Z,9.50
2023-03-06T00:17:53.707Z,10.00
2023-03-06T00:20:21.627Z,9.18
2023-03-06T00:22:49.514Z,9.57
2023-03-06T00:25:19.135Z,10.68
2023-03-06T00:27:46.075Z,9.82
2023-03-06T00:30:15.586Z,9.73
2023-03-06T00:32:42.811Z,9.27
2023-03-06T00:35:09.617Z,10.23
2023-03-06T00:37:36.284Z,9.63
2023-03-06T00:40:05.905Z,10.18
2023-03-06T00:42:32.475Z,10.15
2023-03-06T00:44:58.995Z,8.30
2023-03-06T00:47:25.525Z,10.07
2023-03-06T00:49:52.079Z,10.00
2023-03-06T00:52:18.835Z,9.20
2023-03-06T00:54:45.494Z,8.63
2023-03-06T00:57:12.467Z,9.45
2023-03-06T00:59:38.977Z,9.30
2023-03-06T01:02:05.840Z,8.63
2023-03-06T01:04:32.526Z,9.13
2023-03-06T01:06:59.238Z,7.43
2023-03-06T01:09:25.836Z,10.20
2023-03-06T01:11:53.908Z,9.13
2023-03-06T01:14:20.472Z,8.63
2023-03-06T01:16:47.905Z,7.60
2023-03-06T01:19:17.462Z,8.25
2023-03-06T01:21:45.057Z,9.07
2023-03-06T01:24:11.585Z,8.85
2023-03-06T01:26:38.189Z,8.85
2023-03-06T01:29:04.789Z,9.40
2023-03-06T01:31:32.236Z,8.82
2023-03-06T01:33:58.813Z,9.82
2023-03-06T01:36:25.359Z,8.55
2023-03-06T01:38:51.942Z,8.02
2023-03-06T01:41:21.102Z,8.57
2023-03-06T01:43:48.203Z,8.52
2023-03-06T01:46:37.962Z,9.38
2023-03-06T01:49:14.311Z,9.63
2023-03-06T01:51:48.202Z,10.18
2023-03-06T01:54:21.244Z,11.98
2023-03-06T01:56:51.064Z,10.23
2023-03-06T01:59:19.814Z,10.77
2023-03-06T02:01:47.060Z,9.27
2023-03-06T02:04:14.302Z,9.75
2023-03-06T02:06:43.310Z,9.73
2023-03-06T02:09:11.045Z,11.18
2023-03-06T02:11:38.289Z,9.43
2023-03-06T02:14:05.112Z,10.50
2023-03-06T02:16:33.154Z,12.60
2023-03-06T02:19:02.130Z,10.50
2023-03-06T02:21:34.161Z,11.10
2023-03-06T02:24:44.158Z,12.18
2023-03-06T02:27:14.259Z,11.10
2023-03-06T02:29:41.270Z,10.15
2023-03-06T02:32:08.206Z,10.02
2023-03-06T02:34:37.759Z,9.77
2023-03-06T02:37:10.438Z,12.10
2023-03-06T02:39:44.245Z,10.65
2023-03-06T02:42:17.814Z,11.57
2023-03-06T02:44:44.552Z,11.95
2023-03-06T02:47:11.117Z,11.55
2023-03-06T02:49:37.852Z,11.80
2023-03-06T02:52:06.745Z,11.80
2023-03-06T02:54:33.473Z,10.07
2023-03-06T02:57:00.090Z,10.40
2023-03-06T02:59:26.716Z,9.82
2023-03-06T03:01:53.692Z,10.70
2023-03-06T03:04:20.408Z,12.25
2023-03-06T03:06:47.322Z,10.23
2023-03-06T03:09:14.250Z,10.75
2023-03-06T03:11:40.782Z,11.30
2023-03-06T03:14:07.546Z,9.93
2023-03-06T03:16:34.163Z,8.95
2023-03-06T03:19:00.681Z,7.97
2023-03-06T03:21:27.642Z,8.43
2023-03-06T03:23:55.182Z,10.27
2023-03-06T03:26:22.691Z,11.93
2023-03-06T03:29:04.637Z,11.50
2023-03-06T03:31:32.665Z,12.50
2023-03-06T03:34:00.679Z,10.73
2023-03-06T03:36:29.292Z,11.75
2023-03-06T03:38:57.660Z,11.85
2023-03-06T03:41:24.455Z,11.63
2023-03-06T03:43:52.024Z,13.48
2023-03-06T03:46:21.491Z,13.02
2023-03-06T03:48:49.111Z,12.50
2023-03-06T03:51:16.611Z,12.75
2023-03-06T03:53:47.127Z,13.38
2023-03-06T03:56:17.747Z,13.18
2023-03-06T03:58:53.872Z,12.70
2023-03-06T04:01:21.356Z,12.20
2023-03-06T04:03:47.972Z,8.75
2023-03-06T04:06:16.573Z,9.30
2023-03-06T04:08:45.761Z,9.90
2023-03-06T04:11:12.463Z,8.43
2023-03-06T04:13:39.514Z,7.95
2023-03-06T04:16:06.412Z,7.57
2023-03-06T04:18:35.006Z,8.25
2023-03-06T04:21:04.877Z,6.90
2023-03-06T04:23:31.791Z,6.85
2023-03-06T04:25:58.550Z,7.88
2023-03-06T04:28:25.451Z,8.57
2023-03-06T04:30:52.354Z,11.35
2023-03-06T04:33:20.145Z,15.32
2023-03-06T04:35:46.896Z,15.68
2023-03-06T04:38:19.167Z,15.63
2023-03-06T04:40:45.754Z,16.83
2023-03-06T04:43:12.406Z,15.15
2023-03-06T04:45:39.092Z,13.43
2023-03-06T04:48:06.022Z,12.25
2023-03-06T04:50:33.244Z,11.52
2023-03-06T04:53:01.673Z,14.15
2023-03-06T04:55:28.849Z,9.25
2023-03-06T04:57:56.151Z,9.20
2023-03-06T05:00:25.530Z,11.30
2023-03-06T05:02:52.505Z,10.13
2023-03-06T05:05:19.301Z,12.23
2023-03-06T05:07:45.823Z,9.52
2023-03-06T05:10:14.872Z,10.10
2023-03-06T05:12:41.724Z,8.88
2023-03-06T05:15:08.787Z,6.93
2023-03-06T05:17:35.398Z,10.18
2023-03-06T05:20:02.037Z,9.15
2023-03-06T05:22:28.573Z,10.90
2023-03-06T05:24:55.095Z,9.57
2023-03-06T05:27:21.709Z,11.77
2023-03-06T05:29:48.302Z,13.10
2023-03-06T05:32:16.929Z,12.65
2023-03-06T05:34:43.530Z,15.23
2023-03-06T05:37:10.080Z,13.77
2023-03-06T05:39:37.226Z,13.80
2023-03-06T05:42:03.879Z,12.63
2023-03-06T05:44:34.698Z,11.32
2023-03-06T05:47:01.685Z,12.13
2023-03-06T05:49:32.674Z,10.90
2023-03-06T05:51:59.725Z,11.27
2023-03-06T05:54:26.694Z,11.93
2023-03-06T05:56:53.561Z,10.98
2023-03-06T05:59:20.089Z,9.05
2023-03-06T06:01:46.627Z,11.10
2023-03-06T06:04:13.194Z,11.50
2023-03-06T06:06:39.710Z,9.45
2023-03-06T06:09:06.210Z,10.70
2023-03-06T06:11:32.770Z,10.90
2023-03-06T06:13:59.349Z,9.18
2023-03-06T06:16:25.881Z,10.60
2023-03-06T06:18:52.516Z,10.30
2023-03-06T06:21:19.863Z,11.02
2023-03-06T06:23:46.426Z,10.55
2023-03-06T06:26:13.024Z,11.18
2023-03-06T06:28:39.643Z,9.30
2023-03-06T06:31:12.234Z,10.85
2023-03-06T06:33:39.611Z,10.98
2023-03-06T06:36:14.250Z,11.90
2023-03-06T06:38:40.796Z,10.90
2023-03-06T06:41:46.632Z,11.52
2023-03-06T06:43:53.905Z,10.48
2023-03-06T06:47:02.718Z,11.80
2023-03-06T06:49:07.405Z,10.73
2023-03-06T06:51:34.129Z,10.65
2023-03-06T06:54:01.195Z,11.80
2023-03-06T06:56:27.725Z,12.05
2023-03-06T06:59:01.330Z,12.00
2023-03-06T07:01:37.059Z,12.50
2023-03-06T07:04:03.935Z,13.30
2023-03-06T07:06:30.539Z,11.98
2023-03-06T07:08:57.555Z,12.48
2023-03-06T07:11:24.111Z,13.13
2023-03-06T07:13:50.745Z,13.13
2023-03-06T07:16:17.755Z,11.32
2023-03-06T07:18:45.328Z,12.48
2023-03-06T07:21:12.151Z,12.38
2023-03-06T07:23:38.752Z,12.38
2023-03-06T07:26:05.353Z,12.00
2023-03-06T07:28:46.132Z,14.10
2023-03-06T07:31:18.436Z,12.10
2023-03-06T07:33:45.054Z,13.50
2023-03-06T07:36:13.566Z,13.48
2023-03-06T07:38:40.547Z,15.13
2023-03-06T07:41:13.100Z,14.80
2023-03-06T07:43:41.265Z,14.13
2023-03-06T07:46:08.073Z,15.20
2023-03-06T07:48:35.594Z,14.93
2023-03-06T07:51:05.554Z,16.30
2023-03-06T07:53:33.681Z,31.30
2023-03-06T07:56:00.536Z,15.18
2023-03-06T07:58:27.406Z,14.55
2023-03-06T08:00:53.971Z,14.93
2023-03-06T08:03:20.599Z,14.45
2023-03-06T08:05:47.168Z,14.77
2023-03-06T08:08:13.742Z,15.98
2023-03-06T08:10:40.315Z,14.95
2023-03-06T08:13:06.881Z,13.65
2023-03-06T08:15:33.391Z,13.20
2023-03-06T08:18:00.029Z,13.55
2023-03-06T08:20:26.644Z,13.70
2023-03-06T08:22:53.241Z,12.63
2023-03-06T08:25:19.813Z,13.98
2023-03-06T08:27:47.414Z,13.43
2023-03-06T08:30:14.675Z,14.10
2023-03-06T08:32:41.327Z,11.70
2023-03-06T08:35:08.393Z,13.13
2023-03-06T08:37:35.164Z,12.13
2023-03-06T08:40:04.483Z,12.40
2023-03-06T08:42:31.895Z,12.68
2023-03-06T08:44:58.526Z,11.82
2023-03-06T08:47:25.161Z,11.27
2023-03-06T08:49:51.713Z,11.13
2023-03-06T08:52:19.833Z,11.18
2023-03-06T08:54:46.557Z,11.25
2023-03-06T08:57:13.095Z,12.23
2023-03-06T08:59:39.671Z,12.20
2023-03-06T09:02:07.570Z,10.32
2023-03-06T09:04:34.397Z,10.82
2023-03-06T09:07:01.267Z,11.27
2023-03-06T09:09:27.861Z,12.57
2023-03-06T09:11:54.951Z,10.07
2023-03-06T09:14:21.544Z,11.32
2023-03-06T09:16:48.193Z,11.13
2023-03-06T09:19:14.743Z,9.38
2023-03-06T09:21:41.370Z,8.70
2023-03-06T09:24:08.347Z,10.18
2023-03-06T09:26:51.684Z,8.98
2023-03-06T09:29:18.628Z,8.90
2023-03-06T09:31:45.589Z,8.43
2023-03-06T09:34:12.240Z,8.52
2023-03-06T09:36:54.930Z,8.80
2023-03-06T09:39:23.064Z,7.55
2023-03-06T09:41:50.117Z,8.85
2023-03-06T09:44:29.228Z,9.88
2023-03-06T09:47:10.572Z,9.30
2023-03-06T09:50:02.084Z,9.02
2023-03-06T09:52:31.709Z,8.00
2023-03-06T09:55:12.825Z,9.18
2023-03-06T09:57:58.631Z,10.27
2023-03-06T10:00:34.718Z,9.70
2023-03-06T10:03:21.448Z,10.15
2023-03-06T10:05:55.079Z,9.73
2023-03-06T10:08:25.091Z,9.30
2023-03-06T10:10:59.584Z,9.55
2023-03-06T10:13:35.239Z,9.73
2023-03-06T10:16:27.032Z,9.60
2023-03-06T10:19:04.909Z,9.80
2023-03-06T10:22:13.711Z,9.07
2023-03-06T10:24:58.984Z,8.85
2023-03-06T10:27:42.794Z,9.02
2023-03-06T10:30:33.920Z,10.45
2023-03-06T10:33:26.925Z,9.97
2023-03-06T10:35:55.420Z,9.18
2023-03-06T10:38:26.531Z,10.20
2023-03-06T10:41:16.384Z,8.65
2023-03-06T10:44:06.698Z,9.05
2023-03-06T10:46:35.165Z,7.88
2023-03-06T10:49:05.334Z,7.82
2023-03-06T10:51:34.033Z,7.63
2023-03-06T10:54:19.245Z,7.68
2023-03-06T10:56:47.430Z,7.85
2023-03-06T10:59:28.313Z,7.30
2023-03-06T11:02:16.388Z,8.23
2023-03-06T11:04:51.009Z,6.70
2023-03-06T11:07:26.182Z,6.95
2023-03-06T11:09:58.727Z,6.78
2023-03-06T11:12:27.600Z,7.15
2023-03-06T11:15:27.157Z,5.95
2023-03-06T11:18:08.703Z,5.80
2023-03-06T11:20:51.938Z,7.00
2023-03-06T11:23:37.456Z,6.78
2023-03-06T11:26:15.410Z,6.95
2023-03-06T11:28:58.939Z,6.28
2023-03-06T11:31:34.583Z,6.25
2023-03-06T11:34:05.115Z,6.75
2023-03-06T11:36:55.277Z,6.50
2023-03-06T11:39:53.309Z,6.32
2023-03-06T11:42:42.558Z,6.60
2023-03-06T11:45:26.546Z,5.82
2023-03-06T11:48:01.712Z,5.55
2023-03-06T11:50:44.739Z,5.68
2023-03-06T11:53:18.426Z,5.38
2023-03-06T11:56:03.465Z,5.50
2023-03-06T11:59:07.740Z,4.72
2023-03-06T12:01:47.235Z,4.95
2023-03-06T12:04:34.838Z,4.50
2023-03-06T12:07:30.381Z,5.72
2023-03-06T12:10:23.302Z,5.63
2023-03-06T12:13:20.398Z,4.60
2023-03-06T12:16:25.174Z,6.00
2023-03-06T12:19:33.866Z,4.97
2023-03-06T12:22:12.463Z,5.03
2023-03-06T12:24:38.947Z,4.60
2023-03-06T12:27:34.735Z,5.20
2023-03-06T12:30:04.204Z,5.47
2023-03-06T12:32:57.559Z,5.18
2023-03-06T12:35:45.449Z,5.25
2023-03-06T12:38:33.873Z,5.50
2023-03-06T12:41:22.949Z,5.90
2023-03-06T12:44:01.259Z,5.82
2023-03-06T12:46:30.446Z,5.55
2023-03-06T12:49:10.289Z,5.75
2023-03-06T12:51:39.841Z,6.38
2023-03-06T12:54:07.280Z,6.28
2023-03-06T12:56:35.333Z,5.38
2023-03-06T12:59:02.569Z,7.80
2023-03-06T13:01:56.332Z,17.95
2023-03-06T13:04:51.947Z,11.02
2023-03-06T13:07:36.762Z,5.90
2023-03-06T13:10:18.757Z,5.57
2023-03-06T13:12:55.966Z,5.75
2023-03-06T13:15:41.995Z,6.15
2023-03-06T13:18:34.651Z,6.05
2023-03-06T13:21:01.319Z,5.80
2023-03-06T13:23:33.999Z,6.72
2023-03-06T13:26:25.369Z,5.50
2023-03-06T13:28:54.416Z,6.15
2023-03-06T13:31:36.455Z,5.88
2023-03-06T13:34:24.837Z,5.00
2023-03-06T13:36:51.744Z,4.95
2023-03-06T13:39:18.341Z,4.75
2023-03-06T13:41:57.573Z,6.05
2023-03-06T13:44:24.297Z,5.05
2023-03-06T13:47:04.799Z,4.72
2023-03-06T13:49:33.304Z,5.38
2023-03-06T13:52:11.012Z,5.10
2023-03-06T13:54:43.338Z,5.90
2023-03-06T13:57:26.203Z,5.13
2023-03-06T14:00:14.406Z,6.07
2023-03-06T14:03:33.842Z,5.00
2023-03-06T14:06:00.660Z,5.30
2023-03-06T14:08:30.265Z,5.93
2023-03-06T14:11:02.748Z,5.50
2023-03-06T14:13:46.575Z,5.90
2023-03-06T14:16:48.918Z,5.80
2023-03-06T14:19:18.681Z,6.30
2023-03-06T14:21:45.210Z,6.30
2023-03-06T14:24:17.485Z,5.22
2023-03-06T14:26:48.505Z,6.85
2023-03-06T14:29:25.887Z,6.55
2023-03-06T14:31:54.698Z,6.90
2023-03-06T14:34:23.582Z,6.03
2023-03-06T14:36:52.581Z,6.05
2023-03-06T14:39:36.011Z,6.53
2023-03-06T14:42:19.244Z,7.50
2023-03-06T14:44:47.167Z,8.32
2023-03-06T14:47:29.345Z,7.60
2023-03-06T14:50:21.746Z,7.72
2023-03-06T14:52:50.299Z,8.75
2023-03-06T14:55:25.548Z,9.18
2023-03-06T14:58:17.876Z,7.70
2023-03-06T15:00:49.381Z,9.13
2023-03-06T15:03:26.754Z,8.20
2023-03-06T15:05:54.861Z,8.35
2023-03-06T15:08:26.659Z,7.93
2023-03-06T15:13:29.032Z,7.80
2023-03-06T15:16:24.681Z,9.38
2023-03-06T15:19:02.482Z,8.07
2023-03-06T15:21:37.962Z,9.50
2023-03-06T15:24:32.009Z,9.35
2023-03-06T15:27:04.404Z,8.27
2023-03-06T15:29:31.120Z,8.57
2023-03-06T15:32:30.463Z,9.75
2023-03-06T15:35:25.307Z,8.38
2023-03-06T15:37:52.272Z,9.60
2023-03-06T15:40:23.998Z,9.15
2023-03-06T15:45:22.457Z,8.18
2023-03-06T15:50:19.447Z,8.75
2023-03-06T15:52:47.233Z,9.45
2023-03-06T15:55:15.715Z,8.88
2023-03-06T15:57:50.668Z,9.75
2023-03-06T16:00:28.315Z,8.80
2023-03-06T16:02:58.821Z,8.60
2023-03-06T16:05:27.082Z,10.10
2023-03-06T16:07:54.056Z,8.88
2023-03-06T16:10:27.285Z,8.50
2023-03-06T16:12:56.737Z,9.43
2023-03-06T16:15:28.862Z,10.00
2023-03-06T16:17:56.852Z,9.88
2023-03-06T16:20:25.545Z,12.38
2023-03-06T16:22:55.257Z,10.25
2023-03-06T16:25:24.069Z,9.95
2023-03-06T16:27:59.483Z,9.35
2023-03-06T16:30:28.948Z,10.20
2023-03-06T16:32:55.615Z,11.60
2023-03-06T16:35:22.231Z,10.48
2023-03-06T16:37:49.006Z,9.13
2023-03-06T16:40:25.766Z,8.73
2023-03-06T16:42:54.062Z,8.70
2023-03-06T16:45:22.579Z,9.85
2023-03-06T16:47:49.619Z,8.63
2023-03-06T16:50:28.645Z,9.00
2023-03-06T16:52:56.408Z,7.60
2023-03-06T16:55:25.095Z,8.20
2023-03-06T16:57:52.230Z,8.35
2023-03-06T17:00:20.132Z,8.15
2023-03-06T17:02:50.418Z,7.43
2023-03-06T17:05:17.846Z,9.35
2023-03-06T17:07:44.710Z,8.25
2023-03-06T17:10:14.670Z,9.38
2023-03-06T17:12:41.964Z,8.30
2023-03-06T17:15:09.857Z,10.35
2023-03-06T17:17:37.036Z,10.52
2023-03-06T17:20:04.801Z,10.13
2023-03-06T17:22:35.813Z,10.05
2023-03-06T17:25:05.022Z,9.80
2023-03-06T17:27:31.621Z,10.07
2023-03-06T17:29:58.846Z,10.38
2023-03-06T17:32:26.769Z,10.85
2023-03-06T17:34:53.924Z,10.18
2023-03-06T17:37:20.924Z,10.45
2023-03-06T17:39:47.751Z,8.88
2023-03-06T17:42:14.277Z,9.38
2023-03-06T17:44:41.244Z,9.98
2023-03-06T17:47:07.794Z,9.43
2023-03-06T17:49:34.450Z,8.95
2023-03-06T17:52:02.805Z,8.80
2023-03-06T17:54:30.168Z,8.02
2023-03-06T17:57:01.016Z,8.07
2023-03-06T17:59:28.132Z,8.00
2023-03-06T18:01:58.523Z,8.25
2023-03-06T18:04:25.574Z,7.65
2023-03-06T18:06:52.451Z,7.25
2023-03-06T18:09:19.232Z,7.35
2023-03-06T18:11:45.770Z,7.60
2023-03-06T18:14:12.317Z,7.70
2023-03-06T18:16:38.904Z,8.40
2023-03-06T18:19:05.488Z,8.85
2023-03-06T18:21:32.035Z,8.23
2023-03-06T18:23:58.828Z,8.27
2023-03-06T18:26:27.893Z,8.35
2023-03-06T18:28:57.017Z,8.93
2023-03-06T18:31:27.543Z,8.48
2023-03-06T18:34:00.572Z,8.82
2023-03-06T18:36:29.957Z,10.00
2023-03-06T18:38:57.369Z,8.07
2023-03-06T18:41:24.236Z,8.60
2023-03-06T18:43:55.197Z,8.75
2023-03-06T18:46:22.241Z,8.95
2023-03-06T18:48:48.849Z,8.80
2023-03-06T18:51:15.884Z,7.85
2023-03-06T18:53:43.536Z,7.07
2023-03-06T18:56:16.657Z,9.55
2023-03-06T18:58:44.214Z,7.93
2023-03-06T19:01:11.670Z,9.02
2023-03-06T19:03:38.424Z,9.95
2023-03-06T19:06:06.838Z,9.57
2023-03-06T19:08:33.835Z,8.63
2023-03-06T19:11:11.787Z,8.88
2023-03-06T19:13:38.379Z,8.95
2023-03-06T19:16:05.770Z,8.05
2023-03-06T19:18:32.665Z,8.40
2023-03-06T19:21:17.492Z,8.95
2023-03-06T19:23:44.564Z,9.80
2023-03-06T19:26:11.858Z,9.27
2023-03-06T19:28:40.024Z,9.25
2023-03-06T19:31:15.819Z,10.23
2023-03-06T19:33:43.022Z,9.95
2023-03-06T19:36:12.303Z,12.27
2023-03-06T19:38:38.945Z,10.27
2023-03-06T19:41:06.280Z,10.48
2023-03-06T19:43:33.111Z,11.23
2023-03-06T19:46:00.907Z,12.25
2023-03-06T19:48:27.546Z,11.57
2023-03-06T19:50:54.061Z,11.10
2023-03-06T19:53:21.666Z,11.13
2023-03-06T19:55:50.950Z,12.70
2023-03-06T19:58:17.756Z,12.10
2023-03-06T20:00:44.346Z,10.45
2023-03-06T20:03:10.869Z,11.73
2023-03-06T20:05:37.427Z,11.25
2023-03-06T20:08:04.035Z,9.48
2023-03-06T20:10:30.814Z,10.80
2023-03-06T20:12:57.411Z,9.63
2023-03-06T20:15:24.000Z,9.90
2023-03-06T20:17:50.506Z,10.23
2023-03-06T20:20:20.160Z,10.00
2023-03-06T20:22:46.738Z,10.95
2023-03-06T20:25:13.294Z,10.10
2023-03-06T20:27:39.876Z,9.32
2023-03-06T20:30:08.079Z,8.55
2023-03-06T20:32:34.866Z,9.18
2023-03-06T20:35:04.037Z,9.70
2023-03-06T20:37:30.658Z,9.88
2023-03-06T20:39:57.337Z,9.43
2023-03-06T20:42:23.875Z,9.20
2023-03-06T20:44:50.425Z,7.60
2023-03-06T20:47:17.051Z,8.80
2023-03-06T20:49:43.590Z,7.68
2023-03-06T20:52:12.305Z,8.85
2023-03-06T20:54:38.861Z,8.00
2023-03-06T20:57:05.456Z,10.77
2023-03-06T20:59:32.328Z,8.88
2023-03-06T21:01:58.935Z,8.23
2023-03-06T21:04:25.568Z,9.13
2023-03-06T21:06:53.425Z,7.80
2023-03-06T21:09:20.010Z,8.80
2023-03-06T21:11:46.822Z,8.02
2023-03-06T21:14:14.310Z,9.27
2023-03-06T21:16:41.309Z,8.30
2023-03-06T21:19:07.875Z,7.90
2023-03-06T21:21:35.109Z,7.70
2023-03-06T21:24:02.333Z,8.02
2023-03-06T21:26:33.536Z,8.93
2023-03-06T21:29:00.986Z,11.05
2023-03-06T21:31:28.443Z,9.77
2023-03-06T21:33:55.788Z,9.40
2023-03-06T21:36:22.883Z,9.13
2023-03-06T21:38:50.710Z,8.57
2023-03-06T21:41:24.705Z,8.90
2023-03-06T21:44:02.253Z,7.43
2023-03-06T21:46:29.681Z,8.32
2023-03-06T21:48:56.981Z,7.75
2023-03-06T21:51:24.959Z,8.10
2023-03-06T21:53:52.877Z,8.10
2023-03-06T21:56:22.072Z,7.70
2023-03-06T21:58:48.619Z,8.60
2023-03-06T22:01:23.372Z,8.13
2023-03-06T22:03:50.258Z,8.75
2023-03-06T22:06:20.391Z,7.45
2023-03-06T22:08:47.361Z,7.70
2023-03-06T22:11:16.276Z,7.20
2023-03-06T22:13:45.041Z,7.32
2023-03-06T22:16:11.691Z,8.80
2023-03-06T22:18:38.393Z,7.38
2023-03-06T22:21:12.312Z,9.68
2023-03-06T22:23:40.454Z,7.80
2023-03-06T22:26:12.870Z,6.88
2023-03-06T22:28:40.274Z,7.28
2023-03-06T22:31:16.009Z,6.82
2023-03-06T22:33:42.911Z,7.38
2023-03-06T22:36:15.099Z,7.45
2023-03-06T22:38:43.957Z,7.82
2023-03-06T22:41:11.534Z,6.93
2023-03-06T22:43:38.323Z,7.72
2023-03-06T22:46:07.661Z,8.30
2023-03-06T22:48:34.254Z,7.80
2023-03-06T22:51:12.857Z,8.25
2023-03-06T22:53:39.829Z,8.00
2023-03-06T22:56:08.295Z,6.93
2023-03-06T22:58:37.109Z,8.18
2023-03-06T23:01:16.095Z,8.60
2023-03-06T23:03:45.132Z,8.43
2023-03-06T23:06:14.264Z,7.35
2023-03-06T23:08:42.078Z,8.45
2023-03-06T23:11:10.539Z,8.23
2023-03-06T23:13:59.474Z,8.90
2023-03-06T23:16:44.742Z,7.97
2023-03-06T23:19:30.625Z,7.78
2023-03-06T23:22:15.900Z,7.97
2023-03-06T23:25:01.103Z,8.30
2023-03-06T23:27:29.147Z,8.50
2023-03-06T23:29:58.807Z,8.15
2023-03-06T23:32:25.427Z,8.18
2023-03-06T23:34:52.120Z,7.30
2023-03-06T23:37:18.691Z,7.88
2023-03-06T23:39:45.938Z,7.03
2023-03-06T23:42:12.485Z,8.18
2023-03-06T23:44:39.055Z,7.50
2023-03-06T23:47:05.646Z,8.10
2023-03-06T23:49:32.223Z,7.05
2023-03-06T23:51:59.175Z,7.25
2023-03-06T23:54:25.828Z,8.35
2023-03-06T23:56:52.361Z,7.20
2023-03-06T23:59:18.928Z,7.78
